sensor_id;sensor_type;location;lat;lon;timestamp;temperature;humidity
20242;DHT22;10279;46.388;8.116;2022-07-23T08:34:20;23.40;99.90
20242;DHT22;10279;46.388;8.116;2022-07-23T08:36:47;23.80;99.90
20242;DHT22;10279;46.388;8.116;2022-07-23T08:39:14;23.80;99.90
20242;DHT22;10279;46.388;8.116;2022-07-23T08:41:41;23.80;99.90
20242;DHT22;10279;46.388;8.116;2022-07-23T08:44:09;23.90;99.90
20242;DHT22;10279;46.388;8.116;2022-07-23T08:46:36;24.00;99.90
20242;DHT22;10279;46.388;8.116;2022-07-23T08:49:10;24.10;99.90
20242;DHT22;10279;46.388;8.116;2022-07-23T08:51:37;24.10;99.90
20242;DHT22;10279;46.388;8.116;2022-07-23T08:54:05;24.20;99.90
20242;DHT22;10279;46.388;8.116;2022-07-23T08:56:32;24.30;99.90
20242;DHT22;10279;46.388;8.116;2022-07-23T08:58:59;24.30;99.90
20242;DHT22;10279;46.388;8.116;2022-07-23T09:01:26;24.30;99.90
20242;DHT22;10279;46.388;8.116;2022-07-23T09:03:54;24.30;99.90
20242;DHT22;10279;46.388;8.116;2022-07-23T09:06:21;24.30;99.90
20242;DHT22;10279;46.388;8.116;2022-07-23T09:08:48;24.30;99.90
20242;DHT22;10279;46.388;8.116;2022-07-23T09:11:18;24.30;99.90
20242;DHT22;10279;46.388;8.116;2022-07-23T09:13:50;24.30;99.90
20242;DHT22;10279;46.388;8.116;2022-07-23T09:19:04;24.40;99.90
20242;DHT22;10279;46.388;8.116;2022-07-23T09:21:33;24.50;99.90
20242;DHT22;10279;46.388;8.116;2022-07-23T09:24:13;24.60;99.90
20242;DHT22;10279;46.388;8.116;2022-07-23T09:26:45;24.70;99.90
20242;DHT22;10279;46.388;8.116;2022-07-23T09:31:48;24.60;99.90
20242;DHT22;10279;46.388;8.116;2022-07-23T09:36:47;24.60;99.90
20242;DHT22;10279;46.388;8.116;2022-07-23T09:39:16;24.60;99.90
20242;DHT22;10279;46.388;8.116;2022-07-23T09:41:47;24.60;99.90
20242;DHT22;10279;46.388;8.116;2022-07-23T09:44:17;24.70;99.90
20242;DHT22;10279;46.388;8.116;2022-07-23T09:46:46;24.90;99.90
20242;DHT22;10279;46.388;8.116;2022-07-23T09:49:18;24.90;99.90
20242;DHT22;10279;46.388;8.116;2022-07-23T09:51:56;24.90;99.90
20242;DHT22;10279;46.388;8.116;2022-07-23T09:54:37;25.00;99.90
20242;DHT22;10279;46.388;8.116;2022-07-23T09:57:07;25.00;99.90
20242;DHT22;10279;46.388;8.116;2022-07-23T09:59:38;24.90;99.90
20242;DHT22;10279;46.388;8.116;2022-07-23T10:02:07;25.00;99.90
20242;DHT22;10279;46.388;8.116;2022-07-23T10:04:35;25.10;99.90
20242;DHT22;10279;46.388;8.116;2022-07-23T10:07:05;25.20;99.90
20242;DHT22;10279;46.388;8.116;2022-07-23T10:09:37;25.30;99.90
20242;DHT22;10279;46.388;8.116;2022-07-23T10:12:12;25.40;99.90
20242;DHT22;10279;46.388;8.116;2022-07-23T10:14:43;25.50;99.90
20242;DHT22;10279;46.388;8.116;2022-07-23T10:17:11;25.60;99.90
20242;DHT22;10279;46.388;8.116;2022-07-23T10:19:38;25.70;99.90
20242;DHT22;10279;46.388;8.116;2022-07-23T10:22:14;25.70;99.90
20242;DHT22;10279;46.388;8.116;2022-07-23T10:25:12;25.60;99.90
20242;DHT22;10279;46.388;8.116;2022-07-23T10:33:20;25.70;99.90
20242;DHT22;10279;46.388;8.116;2022-07-23T10:35:56;25.80;99.90
20242;DHT22;10279;46.388;8.116;2022-07-23T10:38:32;25.90;99.90
20242;DHT22;10279;46.388;8.116;2022-07-23T10:41:04;26.00;99.90
20242;DHT22;10279;46.388;8.116;2022-07-23T10:43:32;26.10;99.90
20242;DHT22;10279;46.388;8.116;2022-07-23T10:46:22;26.10;99.90
20242;DHT22;10279;46.388;8.116;2022-07-23T10:49:29;26.20;99.90
20242;DHT22;10279;46.388;8.116;2022-07-23T10:52:26;26.20;99.90
20242;DHT22;10279;46.388;8.116;2022-07-23T10:54:54;26.30;99.90
20242;DHT22;10279;46.388;8.116;2022-07-23T10:57:26;26.30;99.90
20242;DHT22;10279;46.388;8.116;2022-07-23T11:00:15;26.30;99.90
20242;DHT22;10279;46.388;8.116;2022-07-23T11:02:46;26.30;99.90
20242;DHT22;10279;46.388;8.116;2022-07-23T11:05:16;26.40;99.90
20242;DHT22;10279;46.388;8.116;2022-07-23T11:10:38;26.40;97.20
20242;DHT22;10279;46.388;8.116;2022-07-23T11:24:07;26.30;95.40
20242;DHT22;10279;46.388;8.116;2022-07-23T11:32:27;25.70;96.00
20242;DHT22;10279;46.388;8.116;2022-07-23T11:34:54;25.60;99.90
20242;DHT22;10279;46.388;8.116;2022-07-23T11:40:02;25.70;99.90
20242;DHT22;10279;46.388;8.116;2022-07-23T11:42:29;25.90;94.90
20242;DHT22;10279;46.388;8.116;2022-07-23T11:44:57;26.30;94.30
20242;DHT22;10279;46.388;8.116;2022-07-23T11:47:26;26.50;92.70
20242;DHT22;10279;46.388;8.116;2022-07-23T11:49:58;26.50;92.20
20242;DHT22;10279;46.388;8.116;2022-07-23T11:52:29;26.70;94.00
20242;DHT22;10279;46.388;8.116;2022-07-23T11:57:28;27.00;91.70
20242;DHT22;10279;46.388;8.116;2022-07-23T12:02:40;27.20;91.60
20242;DHT22;10279;46.388;8.116;2022-07-23T12:05:15;27.40;93.20
20242;DHT22;10279;46.388;8.116;2022-07-23T12:07:48;27.70;91.90
20242;DHT22;10279;46.388;8.116;2022-07-23T12:10:29;27.90;91.50
20242;DHT22;10279;46.388;8.116;2022-07-23T12:12:59;28.10;90.60
20242;DHT22;10279;46.388;8.116;2022-07-23T12:18:02;27.80;93.00
20242;DHT22;10279;46.388;8.116;2022-07-23T12:20:41;27.60;92.00
20242;DHT22;10279;46.388;8.116;2022-07-23T12:23:10;27.60;93.50
20242;DHT22;10279;46.388;8.116;2022-07-23T12:25:43;27.50;92.20
20242;DHT22;10279;46.388;8.116;2022-07-23T12:28:16;27.50;92.20
20242;DHT22;10279;46.388;8.116;2022-07-23T12:30:55;27.70;92.60
20242;DHT22;10279;46.388;8.116;2022-07-23T12:33:28;28.00;94.20
20242;DHT22;10279;46.388;8.116;2022-07-23T12:36:01;28.20;94.00
20242;DHT22;10279;46.388;8.116;2022-07-23T12:38:42;28.20;92.90
20242;DHT22;10279;46.388;8.116;2022-07-23T12:41:10;28.10;90.40
20242;DHT22;10279;46.388;8.116;2022-07-23T12:43:42;28.00;91.20
20242;DHT22;10279;46.388;8.116;2022-07-23T12:46:14;28.10;92.20
20242;DHT22;10279;46.388;8.116;2022-07-23T12:51:27;28.40;92.20
20242;DHT22;10279;46.388;8.116;2022-07-23T12:54:03;28.40;92.40
20242;DHT22;10279;46.388;8.116;2022-07-23T12:56:38;28.40;91.30
20242;DHT22;10279;46.388;8.116;2022-07-23T12:59:14;28.40;92.20
20242;DHT22;10279;46.388;8.116;2022-07-23T13:01:55;28.40;92.20
20242;DHT22;10279;46.388;8.116;2022-07-23T13:04:26;28.40;89.10
20242;DHT22;10279;46.388;8.116;2022-07-23T13:06:58;28.40;91.30
20242;DHT22;10279;46.388;8.116;2022-07-23T13:09:31;28.60;92.20
20242;DHT22;10279;46.388;8.116;2022-07-23T13:12:04;28.90;91.60
